sensor_id;sensor_type;location;lat;lon;timestamp;temperature;humidity
8424;DHT22;4249;49.072;9.770;2022-11-06T00:00:17;3.40;1.00
8424;DHT22;4249;49.072;9.770;2022-11-06T00:03:05;3.40;1.00
8424;DHT22;4249;49.072;9.770;2022-11-06T00:05:52;3.40;1.00
8424;DHT22;4249;49.072;9.770;2022-11-06T00:08:58;3.30;1.00
8424;DHT22;4249;49.072;9.770;2022-11-06T00:11:48;3.30;1.00
8424;DHT22;4249;49.072;9.770;2022-11-06T00:14:37;3.30;1.00
8424;DHT22;4249;49.072;9.770;2022-11-06T00:17:24;3.40;1.00
8424;DHT22;4249;49.072;9.770;2022-11-06T00:20:11;3.40;1.00
8424;DHT22;4249;49.072;9.770;2022-11-06T00:22:59;3.40;1.00
8424;DHT22;4249;49.072;9.770;2022-11-06T00:25:46;3.40;1.00
8424;DHT22;4249;49.072;9.770;2022-11-06T00:28:39;3.50;1.00
8424;DHT22;4249;49.072;9.770;2022-11-06T00:31:28;3.60;1.00
8424;DHT22;4249;49.072;9.770;2022-11-06T00:34:15;3.60;1.00
8424;DHT22;4249;49.072;9.770;2022-11-06T00:37:02;3.70;1.00
8424;DHT22;4249;49.072;9.770;2022-11-06T00:39:50;3.70;1.00
8424;DHT22;4249;49.072;9.770;2022-11-06T00:42:37;3.70;1.00
8424;DHT22;4249;49.072;9.770;2022-11-06T00:45:26;3.80;1.00
8424;DHT22;4249;49.072;9.770;2022-11-06T00:48:13;3.80;1.00
8424;DHT22;4249;49.072;9.770;2022-11-06T00:51:03;3.80;1.00
8424;DHT22;4249;49.072;9.770;2022-11-06T00:53:53;3.80;1.00
8424;DHT22;4249;49.072;9.770;2022-11-06T00:56:40;3.70;1.00
8424;DHT22;4249;49.072;9.770;2022-11-06T00:59:28;3.60;1.00
8424;DHT22;4249;49.072;9.770;2022-11-06T01:02:16;3.60;1.00
8424;DHT22;4249;49.072;9.770;2022-11-06T01:05:06;3.60;1.00
8424;DHT22;4249;49.072;9.770;2022-11-06T01:07:53;3.50;1.00
8424;DHT22;4249;49.072;9.770;2022-11-06T01:10:40;3.50;1.00
8424;DHT22;4249;49.072;9.770;2022-11-06T01:13:27;3.50;1.00
8424;DHT22;4249;49.072;9.770;2022-11-06T01:16:15;3.60;1.00
8424;DHT22;4249;49.072;9.770;2022-11-06T01:19:04;3.60;1.00
8424;DHT22;4249;49.072;9.770;2022-11-06T01:21:52;3.60;1.00
8424;DHT22;4249;49.072;9.770;2022-11-06T01:24:39;3.60;1.00
8424;DHT22;4249;49.072;9.770;2022-11-06T01:27:26;3.50;1.00
8424;DHT22;4249;49.072;9.770;2022-11-06T01:30:14;3.50;1.00
8424;DHT22;4249;49.072;9.770;2022-11-06T01:33:01;3.50;1.00
8424;DHT22;4249;49.072;9.770;2022-11-06T01:35:50;3.50;1.00
8424;DHT22;4249;49.072;9.770;2022-11-06T01:38:39;3.50;1.00
8424;DHT22;4249;49.072;9.770;2022-11-06T01:41:29;3.50;1.00
8424;DHT22;4249;49.072;9.770;2022-11-06T01:47:40;3.50;1.00
8424;DHT22;4249;49.072;9.770;2022-11-06T01:50:28;3.50;1.00
8424;DHT22;4249;49.072;9.770;2022-11-06T01:53:17;3.50;1.00
8424;DHT22;4249;49.072;9.770;2022-11-06T01:56:06;3.50;1.00
8424;DHT22;4249;49.072;9.770;2022-11-06T01:58:55;3.50;1.00
8424;DHT22;4249;49.072;9.770;2022-11-06T02:01:42;3.50;1.00
8424;DHT22;4249;49.072;9.770;2022-11-06T02:04:32;3.50;1.00
8424;DHT22;4249;49.072;9.770;2022-11-06T02:07:20;3.40;1.00
8424;DHT22;4249;49.072;9.770;2022-11-06T02:10:09;3.40;1.00
8424;DHT22;4249;49.072;9.770;2022-11-06T02:13:14;3.30;1.00
8424;DHT22;4249;49.072;9.770;2022-11-06T02:16:06;3.30;1.00
8424;DHT22;4249;49.072;9.770;2022-11-06T02:19:05;3.20;1.00
8424;DHT22;4249;49.072;9.770;2022-11-06T02:22:10;3.10;1.00
8424;DHT22;4249;49.072;9.770;2022-11-06T02:25:22;3.10;1.00
8424;DHT22;4249;49.072;9.770;2022-11-06T02:28:19;3.10;1.00
8424;DHT22;4249;49.072;9.770;2022-11-06T02:31:12;3.10;1.00
8424;DHT22;4249;49.072;9.770;2022-11-06T02:34:04;3.00;1.00
8424;DHT22;4249;49.072;9.770;2022-11-06T02:36:55;2.90;1.00
8424;DHT22;4249;49.072;9.770;2022-11-06T02:39:47;2.80;1.00
8424;DHT22;4249;49.072;9.770;2022-11-06T02:42:38;2.70;1.00
8424;DHT22;4249;49.072;9.770;2022-11-06T02:45:30;2.70;1.00
8424;DHT22;4249;49.072;9.770;2022-11-06T02:48:21;2.60;1.00
8424;DHT22;4249;49.072;9.770;2022-11-06T02:51:13;2.50;1.00
8424;DHT22;4249;49.072;9.770;2022-11-06T02:54:03;2.50;1.00
8424;DHT22;4249;49.072;9.770;2022-11-06T02:56:54;2.50;1.00
8424;DHT22;4249;49.072;9.770;2022-11-06T02:59:47;2.50;1.00
8424;DHT22;4249;49.072;9.770;2022-11-06T03:02:41;2.50;1.00
8424;DHT22;4249;49.072;9.770;2022-11-06T03:05:33;2.50;1.00
8424;DHT22;4249;49.072;9.770;2022-11-06T03:08:25;2.40;1.00
8424;DHT22;4249;49.072;9.770;2022-11-06T03:11:17;2.40;1.00
8424;DHT22;4249;49.072;9.770;2022-11-06T03:14:09;2.40;1.00
8424;DHT22;4249;49.072;9.770;2022-11-06T03:17:01;2.40;1.00
8424;DHT22;4249;49.072;9.770;2022-11-06T03:19:56;2.40;1.00
8424;DHT22;4249;49.072;9.770;2022-11-06T03:22:52;2.40;1.00
8424;DHT22;4249;49.072;9.770;2022-11-06T03:25:45;2.30;1.00
8424;DHT22;4249;49.072;9.770;2022-11-06T03:28:36;2.40;1.00
8424;DHT22;4249;49.072;9.770;2022-11-06T03:31:26;2.40;1.00
8424;DHT22;4249;49.072;9.770;2022-11-06T03:34:21;2.40;1.00
8424;DHT22;4249;49.072;9.770;2022-11-06T03:37:15;2.40;1.00
8424;DHT22;4249;49.072;9.770;2022-11-06T03:40:07;2.40;1.00
8424;DHT22;4249;49.072;9.770;2022-11-06T03:43:00;2.40;1.00
8424;DHT22;4249;49.072;9.770;2022-11-06T03:45:50;2.40;1.00
8424;DHT22;4249;49.072;9.770;2022-11-06T03:48:40;2.50;1.00
8424;DHT22;4249;49.072;9.770;2022-11-06T03:51:32;2.40;1.00
8424;DHT22;4249;49.072;9.770;2022-11-06T03:54:25;2.40;1.00
8424;DHT22;4249;49.072;9.770;2022-11-06T03:57:17;2.40;1.00
8424;DHT22;4249;49.072;9.770;2022-11-06T04:00:07;2.30;1.00
8424;DHT22;4249;49.072;9.770;2022-11-06T04:02:57;2.20;1.00
8424;DHT22;4249;49.072;9.770;2022-11-06T04:05:52;2.10;1.00
8424;DHT22;4249;49.072;9.770;2022-11-06T04:08:42;2.10;1.00
8424;DHT22;4249;49.072;9.770;2022-11-06T04:11:50;2.10;1.00
8424;DHT22;4249;49.072;9.770;2022-11-06T04:14:57;2.00;1.00
8424;DHT22;4249;49.072;9.770;2022-11-06T04:17:45;1.90;1.00
8424;DHT22;4249;49.072;9.770;2022-11-06T04:20:36;1.80;1.00
8424;DHT22;4249;49.072;9.770;2022-11-06T04:23:50;1.80;1.00
8424;DHT22;4249;49.072;9.770;2022-11-06T04:27:10;1.70;1.00
8424;DHT22;4249;49.072;9.770;2022-11-06T04:30:06;1.70;1.00
8424;DHT22;4249;49.072;9.770;2022-11-06T04:33:01;1.70;1.00
8424;DHT22;4249;49.072;9.770;2022-11-06T04:36:00;1.60;1.00
8424;DHT22;4249;49.072;9.770;2022-11-06T04:38:53;1.60;1.00
8424;DHT22;4249;49.072;9.770;2022-11-06T04:41:48;1.50;1.00
8424;DHT22;4249;49.072;9.770;2022-11-06T04:44:41;1.50;1.00
8424;DHT22;4249;49.072;9.770;2022-11-06T04:47:30;1.50;1.00
8424;DHT22;4249;49.072;9.770;2022-11-06T04:50:19;1.70;1.00
8424;DHT22;4249;49.072;9.770;2022-11-06T04:53:07;1.70;1.00
8424;DHT22;4249;49.072;9.770;2022-11-06T04:56:00;1.80;1.00
8424;DHT22;4249;49.072;9.770;2022-11-06T04:58:47;1.80;1.00
8424;DHT22;4249;49.072;9.770;2022-11-06T05:01:35;1.90;1.00
8424;DHT22;4249;49.072;9.770;2022-11-06T05:04:23;1.80;1.00
8424;DHT22;4249;49.072;9.770;2022-11-06T05:07:12;1.80;1.00
8424;DHT22;4249;49.072;9.770;2022-11-06T05:09:59;1.70;1.00
8424;DHT22;4249;49.072;9.770;2022-11-06T05:12:46;1.60;1.00
8424;DHT22;4249;49.072;9.770;2022-11-06T05:15:34;1.50;1.00
8424;DHT22;4249;49.072;9.770;2022-11-06T05:18:22;1.40;1.00
8424;DHT22;4249;49.072;9.770;2022-11-06T05:21:10;1.40;1.00
8424;DHT22;4249;49.072;9.770;2022-11-06T05:24:14;1.40;1.00
8424;DHT22;4249;49.072;9.770;2022-11-06T05:27:01;1.30;1.00
8424;DHT22;4249;49.072;9.770;2022-11-06T05:29:48;1.20;1.00
8424;DHT22;4249;49.072;9.770;2022-11-06T05:32:36;1.30;1.00
8424;DHT22;4249;49.072;9.770;2022-11-06T05:35:24;1.20;1.00
8424;DHT22;4249;49.072;9.770;2022-11-06T05:38:11;1.20;1.00
8424;DHT22;4249;49.072;9.770;2022-11-06T05:40:58;1.20;1.00
8424;DHT22;4249;49.072;9.770;2022-11-06T05:43:46;1.20;1.00
8424;DHT22;4249;49.072;9.770;2022-11-06T05:46:33;1.30;1.00
8424;DHT22;4249;49.072;9.770;2022-11-06T05:49:20;1.40;1.00
8424;DHT22;4249;49.072;9.770;2022-11-06T05:52:09;1.50;1.00
8424;DHT22;4249;49.072;9.770;2022-11-06T05:54:56;1.50;1.00
8424;DHT22;4249;49.072;9.770;2022-11-06T05:57:43;1.60;1.00
8424;DHT22;4249;49.072;9.770;2022-11-06T06:00:30;1.60;1.00
8424;DHT22;4249;49.072;9.770;2022-11-06T06:03:18;1.70;1.00
8424;DHT22;4249;49.072;9.770;2022-11-06T06:06:06;1.70;1.00
8424;DHT22;4249;49.072;9.770;2022-11-06T06:08:54;1.60;1.00
8424;DHT22;4249;49.072;9.770;2022-11-06T06:11:42;1.60;1.00
8424;DHT22;4249;49.072;9.770;2022-11-06T06:14:29;1.50;1.00
8424;DHT22;4249;49.072;9.770;2022-11-06T06:17:16;1.50;1.00
8424;DHT22;4249;49.072;9.770;2022-11-06T06:20:04;1.50;1.00
8424;DHT22;4249;49.072;9.770;2022-11-06T06:22:52;1.50;1.00
8424;DHT22;4249;49.072;9.770;2022-11-06T06:25:41;1.40;1.00
8424;DHT22;4249;49.072;9.770;2022-11-06T06:28:28;1.40;1.00
8424;DHT22;4249;49.072;9.770;2022-11-06T06:31:16;1.40;1.00
8424;DHT22;4249;49.072;9.770;2022-11-06T06:34:03;1.30;1.00
8424;DHT22;4249;49.072;9.770;2022-11-06T06:36:51;1.30;1.00
8424;DHT22;4249;49.072;9.770;2022-11-06T06:39:38;1.30;1.00
8424;DHT22;4249;49.072;9.770;2022-11-06T06:42:27;1.20;1.00
8424;DHT22;4249;49.072;9.770;2022-11-06T06:45:15;1.20;1.00
8424;DHT22;4249;49.072;9.770;2022-11-06T06:48:03;1.30;1.00
8424;DHT22;4249;49.072;9.770;2022-11-06T06:50:50;1.30;1.00
8424;DHT22;4249;49.072;9.770;2022-11-06T06:53:38;1.30;1.00
8424;DHT22;4249;49.072;9.770;2022-11-06T06:56:25;1.30;1.00
8424;DHT22;4249;49.072;9.770;2022-11-06T06:59:13;1.50;1.00
8424;DHT22;4249;49.072;9.770;2022-11-06T07:02:01;1.60;1.00
8424;DHT22;4249;49.072;9.770;2022-11-06T07:04:48;1.70;1.00
8424;DHT22;4249;49.072;9.770;2022-11-06T07:07:35;1.80;1.00
8424;DHT22;4249;49.072;9.770;2022-11-06T07:10:22;1.90;1.00
8424;DHT22;4249;49.072;9.770;2022-11-06T07:13:09;1.90;1.00
8424;DHT22;4249;49.072;9.770;2022-11-06T07:16:00;2.00;1.00
8424;DHT22;4249;49.072;9.770;2022-11-06T07:18:48;2.10;1.00
8424;DHT22;4249;49.072;9.770;2022-11-06T07:21:35;2.10;1.00
8424;DHT22;4249;49.072;9.770;2022-11-06T07:24:22;2.10;1.00
8424;DHT22;4249;49.072;9.770;2022-11-06T07:27:09;2.10;1.00
8424;DHT22;4249;49.072;9.770;2022-11-06T07:29:57;2.20;1.00
8424;DHT22;4249;49.072;9.770;2022-11-06T07:32:47;2.30;1.00
8424;DHT22;4249;49.072;9.770;2022-11-06T07:35:35;2.40;1.00
8424;DHT22;4249;49.072;9.770;2022-11-06T07:38:23;2.50;1.00
8424;DHT22;4249;49.072;9.770;2022-11-06T07:41:12;2.60;1.00
8424;DHT22;4249;49.072;9.770;2022-11-06T07:43:59;2.70;1.00
8424;DHT22;4249;49.072;9.770;2022-11-06T07:46:46;2.70;1.00
8424;DHT22;4249;49.072;9.770;2022-11-06T07:49:35;2.80;1.00
8424;DHT22;4249;49.072;9.770;2022-11-06T07:52:22;2.90;1.00
8424;DHT22;4249;49.072;9.770;2022-11-06T07:55:09;3.00;1.00
8424;DHT22;4249;49.072;9.770;2022-11-06T07:57:57;3.10;1.00
8424;DHT22;4249;49.072;9.770;2022-11-06T08:00:47;3.30;1.00
8424;DHT22;4249;49.072;9.770;2022-11-06T08:03:35;3.50;1.00
8424;DHT22;4249;49.072;9.770;2022-11-06T08:06:23;3.50;1.00
8424;DHT22;4249;49.072;9.770;2022-11-06T08:09:10;3.50;1.00
8424;DHT22;4249;49.072;9.770;2022-11-06T08:11:58;3.60;1.00
8424;DHT22;4249;49.072;9.770;2022-11-06T08:14:46;3.60;1.00
8424;DHT22;4249;49.072;9.770;2022-11-06T08:17:33;3.70;1.00
8424;DHT22;4249;49.072;9.770;2022-11-06T08:20:20;3.90;1.00
8424;DHT22;4249;49.072;9.770;2022-11-06T08:23:10;3.90;1.00
8424;DHT22;4249;49.072;9.770;2022-11-06T08:26:00;3.90;1.00
8424;DHT22;4249;49.072;9.770;2022-11-06T08:28:48;3.90;1.00
8424;DHT22;4249;49.072;9.770;2022-11-06T08:31:35;3.90;1.00
8424;DHT22;4249;49.072;9.770;2022-11-06T08:34:22;4.10;1.00
8424;DHT22;4249;49.072;9.770;2022-11-06T08:37:10;4.30;1.00
8424;DHT22;4249;49.072;9.770;2022-11-06T08:39:58;4.40;1.00
8424;DHT22;4249;49.072;9.770;2022-11-06T08:42:45;4.50;1.00
8424;DHT22;4249;49.072;9.770;2022-11-06T08:45:35;4.60;1.00
8424;DHT22;4249;49.072;9.770;2022-11-06T08:48:23;4.60;1.00
8424;DHT22;4249;49.072;9.770;2022-11-06T08:51:10;4.80;1.00
8424;DHT22;4249;49.072;9.770;2022-11-06T08:53:57;4.90;1.00
8424;DHT22;4249;49.072;9.770;2022-11-06T08:56:46;5.00;1.00
8424;DHT22;4249;49.072;9.770;2022-11-06T08:59:33;5.10;1.00
8424;DHT22;4249;49.072;9.770;2022-11-06T09:02:20;5.30;1.00
8424;DHT22;4249;49.072;9.770;2022-11-06T09:05:08;5.50;1.00
8424;DHT22;4249;49.072;9.770;2022-11-06T09:07:55;5.70;1.00
8424;DHT22;4249;49.072;9.770;2022-11-06T09:10:43;5.80;1.00
8424;DHT22;4249;49.072;9.770;2022-11-06T09:13:31;5.90;1.00
8424;DHT22;4249;49.072;9.770;2022-11-06T09:16:19;6.10;1.00
8424;DHT22;4249;49.072;9.770;2022-11-06T09:19:06;6.30;1.00
8424;DHT22;4249;49.072;9.770;2022-11-06T09:21:53;6.40;1.00
8424;DHT22;4249;49.072;9.770;2022-11-06T09:24:40;6.60;1.00
8424;DHT22;4249;49.072;9.770;2022-11-06T09:27:27;6.60;99.90
8424;DHT22;4249;49.072;9.770;2022-11-06T09:30:19;6.60;99.90
8424;DHT22;4249;49.072;9.770;2022-11-06T09:33:06;6.60;99.90
8424;DHT22;4249;49.072;9.770;2022-11-06T09:35:54;6.70;99.90
8424;DHT22;4249;49.072;9.770;2022-11-06T09:38:41;6.80;99.90
8424;DHT22;4249;49.072;9.770;2022-11-06T09:41:36;6.90;99.90
8424;DHT22;4249;49.072;9.770;2022-11-06T09:44:37;7.10;99.90
8424;DHT22;4249;49.072;9.770;2022-11-06T09:47:31;7.30;99.90
8424;DHT22;4249;49.072;9.770;2022-11-06T09:50:26;7.40;99.90
8424;DHT22;4249;49.072;9.770;2022-11-06T09:53:18;7.50;1.00
8424;DHT22;4249;49.072;9.770;2022-11-06T09:56:10;7.70;1.00
8424;DHT22;4249;49.072;9.770;2022-11-06T09:59:00;7.80;1.00
8424;DHT22;4249;49.072;9.770;2022-11-06T10:01:53;7.90;99.00
8424;DHT22;4249;49.072;9.770;2022-11-06T10:04:47;8.00;2.00
8424;DHT22;4249;49.072;9.770;2022-11-06T10:07:38;8.10;99.90
8424;DHT22;4249;49.072;9.770;2022-11-06T10:10:30;8.30;99.90
8424;DHT22;4249;49.072;9.770;2022-11-06T10:13:32;8.30;1.00
8424;DHT22;4249;49.072;9.770;2022-11-06T10:16:29;8.20;1.00
8424;DHT22;4249;49.072;9.770;2022-11-06T10:19:24;8.40;99.90
8424;DHT22;4249;49.072;9.770;2022-11-06T10:22:17;8.50;1.00
8424;DHT22;4249;49.072;9.770;2022-11-06T10:25:17;8.60;1.00
8424;DHT22;4249;49.072;9.770;2022-11-06T10:28:15;8.50;1.00
8424;DHT22;4249;49.072;9.770;2022-11-06T10:31:10;8.70;1.00
8424;DHT22;4249;49.072;9.770;2022-11-06T10:34:01;8.90;1.00
8424;DHT22;4249;49.072;9.770;2022-11-06T10:36:51;9.10;1.00
8424;DHT22;4249;49.072;9.770;2022-11-06T10:39:42;9.30;99.90
8424;DHT22;4249;49.072;9.770;2022-11-06T10:42:35;9.40;1.00
8424;DHT22;4249;49.072;9.770;2022-11-06T10:45:25;9.60;99.90
8424;DHT22;4249;49.072;9.770;2022-11-06T10:48:20;9.80;1.00
8424;DHT22;4249;49.072;9.770;2022-11-06T10:51:20;10.00;1.00
8424;DHT22;4249;49.072;9.770;2022-11-06T10:54:25;10.20;24.50
8424;DHT22;4249;49.072;9.770;2022-11-06T10:57:30;10.30;1.00
8424;DHT22;4249;49.072;9.770;2022-11-06T11:00:20;10.50;1.00
8424;DHT22;4249;49.072;9.770;2022-11-06T11:03:18;10.70;1.00
8424;DHT22;4249;49.072;9.770;2022-11-06T11:06:08;10.80;1.00
8424;DHT22;4249;49.072;9.770;2022-11-06T11:08:55;11.00;1.00
8424;DHT22;4249;49.072;9.770;2022-11-06T11:11:48;11.00;1.00
8424;DHT22;4249;49.072;9.770;2022-11-06T11:14:36;11.10;1.00
8424;DHT22;4249;49.072;9.770;2022-11-06T11:17:24;11.20;1.00
8424;DHT22;4249;49.072;9.770;2022-11-06T11:20:29;11.20;1.00
8424;DHT22;4249;49.072;9.770;2022-11-06T11:23:19;11.10;1.00
8424;DHT22;4249;49.072;9.770;2022-11-06T11:26:20;11.00;1.00
8424;DHT22;4249;49.072;9.770;2022-11-06T11:29:14;11.00;1.00
8424;DHT22;4249;49.072;9.770;2022-11-06T11:32:05;10.90;99.90
8424;DHT22;4249;49.072;9.770;2022-11-06T11:34:53;10.80;1.00
8424;DHT22;4249;49.072;9.770;2022-11-06T11:37:41;10.80;1.00
8424;DHT22;4249;49.072;9.770;2022-11-06T11:40:33;10.80;1.00
8424;DHT22;4249;49.072;9.770;2022-11-06T11:43:23;10.90;1.00
8424;DHT22;4249;49.072;9.770;2022-11-06T11:46:17;10.90;1.00
8424;DHT22;4249;49.072;9.770;2022-11-06T11:49:25;10.70;1.00
8424;DHT22;4249;49.072;9.770;2022-11-06T11:52:17;10.70;1.00
8424;DHT22;4249;49.072;9.770;2022-11-06T11:55:14;10.70;1.00
8424;DHT22;4249;49.072;9.770;2022-11-06T11:58:02;10.70;1.00
8424;DHT22;4249;49.072;9.770;2022-11-06T12:00:53;10.70;1.00
8424;DHT22;4249;49.072;9.770;2022-11-06T12:03:42;10.60;1.00
8424;DHT22;4249;49.072;9.770;2022-11-06T12:06:32;10.40;1.00
8424;DHT22;4249;49.072;9.770;2022-11-06T12:09:20;10.30;1.00
8424;DHT22;4249;49.072;9.770;2022-11-06T12:12:19;10.20;1.00
8424;DHT22;4249;49.072;9.770;2022-11-06T12:15:17;10.20;1.00
8424;DHT22;4249;49.072;9.770;2022-11-06T12:18:09;10.30;1.00
8424;DHT22;4249;49.072;9.770;2022-11-06T12:21:00;10.30;1.00
8424;DHT22;4249;49.072;9.770;2022-11-06T12:23:52;10.00;1.00
8424;DHT22;4249;49.072;9.770;2022-11-06T12:26:44;9.90;1.00
8424;DHT22;4249;49.072;9.770;2022-11-06T12:29:33;9.80;1.00
8424;DHT22;4249;49.072;9.770;2022-11-06T12:32:27;9.80;1.00
8424;DHT22;4249;49.072;9.770;2022-11-06T12:35:23;9.80;1.00
8424;DHT22;4249;49.072;9.770;2022-11-06T12:38:23;9.90;1.00
8424;DHT22;4249;49.072;9.770;2022-11-06T12:41:21;9.90;1.00
8424;DHT22;4249;49.072;9.770;2022-11-06T12:44:11;10.10;1.00
8424;DHT22;4249;49.072;9.770;2022-11-06T12:47:03;10.10;1.00
8424;DHT22;4249;49.072;9.770;2022-11-06T12:50:07;10.20;1.00
8424;DHT22;4249;49.072;9.770;2022-11-06T12:53:09;10.20;1.00
8424;DHT22;4249;49.072;9.770;2022-11-06T12:56:06;10.20;1.00
8424;DHT22;4249;49.072;9.770;2022-11-06T12:59:08;10.20;1.00
8424;DHT22;4249;49.072;9.770;2022-11-06T13:02:11;10.10;1.00
8424;DHT22;4249;49.072;9.770;2022-11-06T13:05:08;10.20;1.00
8424;DHT22;4249;49.072;9.770;2022-11-06T13:08:16;10.20;1.00
8424;DHT22;4249;49.072;9.770;2022-11-06T13:11:16;10.20;1.00
8424;DHT22;4249;49.072;9.770;2022-11-06T13:14:15;10.10;1.00
8424;DHT22;4249;49.072;9.770;2022-11-06T13:17:08;10.10;1.00
8424;DHT22;4249;49.072;9.770;2022-11-06T13:20:04;10.10;1.00
8424;DHT22;4249;49.072;9.770;2022-11-06T13:22:59;9.90;1.00
8424;DHT22;4249;49.072;9.770;2022-11-06T13:25:52;9.80;1.00
8424;DHT22;4249;49.072;9.770;2022-11-06T13:28:43;9.70;1.00
8424;DHT22;4249;49.072;9.770;2022-11-06T13:31:37;9.60;1.00
8424;DHT22;4249;49.072;9.770;2022-11-06T13:34:28;9.50;1.00
8424;DHT22;4249;49.072;9.770;2022-11-06T13:37:18;9.50;1.00
8424;DHT22;4249;49.072;9.770;2022-11-06T13:40:17;9.40;1.00
8424;DHT22;4249;49.072;9.770;2022-11-06T13:43:14;9.30;1.00
8424;DHT22;4249;49.072;9.770;2022-11-06T13:46:07;9.20;1.00
8424;DHT22;4249;49.072;9.770;2022-11-06T13:49:05;9.10;1.00
8424;DHT22;4249;49.072;9.770;2022-11-06T13:51:56;9.00;1.00
8424;DHT22;4249;49.072;9.770;2022-11-06T13:54:59;9.00;1.00
8424;DHT22;4249;49.072;9.770;2022-11-06T14:01:13;8.80;1.00
8424;DHT22;4249;49.072;9.770;2022-11-06T14:04:20;8.80;1.00
8424;DHT22;4249;49.072;9.770;2022-11-06T14:07:10;8.80;1.00
8424;DHT22;4249;49.072;9.770;2022-11-06T14:09:58;8.80;1.00
8424;DHT22;4249;49.072;9.770;2022-11-06T14:12:46;8.70;1.00
8424;DHT22;4249;49.072;9.770;2022-11-06T14:15:36;8.60;1.00
8424;DHT22;4249;49.072;9.770;2022-11-06T14:18:25;8.70;1.00
8424;DHT22;4249;49.072;9.770;2022-11-06T14:24:36;8.60;1.00
8424;DHT22;4249;49.072;9.770;2022-11-06T14:28:02;8.60;27.30
8424;DHT22;4249;49.072;9.770;2022-11-06T14:30:50;8.60;99.90
8424;DHT22;4249;49.072;9.770;2022-11-06T14:33:56;8.60;37.20
8424;DHT22;4249;49.072;9.770;2022-11-06T14:36:44;8.60;99.90
8424;DHT22;4249;49.072;9.770;2022-11-06T14:42:53;8.50;99.90
8424;DHT22;4249;49.072;9.770;2022-11-06T14:45:49;8.50;47.40
8424;DHT22;4249;49.072;9.770;2022-11-06T14:48:38;8.50;24.80
8424;DHT22;4249;49.072;9.770;2022-11-06T14:51:28;8.40;1.00
8424;DHT22;4249;49.072;9.770;2022-11-06T14:54:19;8.30;50.40
8424;DHT22;4249;49.072;9.770;2022-11-06T14:57:14;8.30;99.90
8424;DHT22;4249;49.072;9.770;2022-11-06T15:00:05;8.30;99.90
8424;DHT22;4249;49.072;9.770;2022-11-06T15:02:54;8.20;99.90
8424;DHT22;4249;49.072;9.770;2022-11-06T15:05:41;8.20;99.90
8424;DHT22;4249;49.072;9.770;2022-11-06T15:08:51;8.20;99.90
8424;DHT22;4249;49.072;9.770;2022-11-06T15:11:56;8.00;99.90
8424;DHT22;4249;49.072;9.770;2022-11-06T15:14:55;8.00;1.00
8424;DHT22;4249;49.072;9.770;2022-11-06T15:17:50;7.90;1.00
8424;DHT22;4249;49.072;9.770;2022-11-06T15:20:38;7.80;99.90
8424;DHT22;4249;49.072;9.770;2022-11-06T15:23:28;7.80;1.00
8424;DHT22;4249;49.072;9.770;2022-11-06T15:26:23;7.70;1.00
8424;DHT22;4249;49.072;9.770;2022-11-06T15:29:19;7.70;1.00
8424;DHT22;4249;49.072;9.770;2022-11-06T15:32:11;7.60;99.90
8424;DHT22;4249;49.072;9.770;2022-11-06T15:35:05;7.50;99.90
8424;DHT22;4249;49.072;9.770;2022-11-06T15:37:57;7.50;1.00
8424;DHT22;4249;49.072;9.770;2022-11-06T15:40:52;7.50;1.00
8424;DHT22;4249;49.072;9.770;2022-11-06T15:43:43;7.40;1.00
8424;DHT22;4249;49.072;9.770;2022-11-06T15:46:31;7.40;93.50
8424;DHT22;4249;49.072;9.770;2022-11-06T15:49:19;7.40;1.00
8424;DHT22;4249;49.072;9.770;2022-11-06T15:52:15;7.40;1.00
8424;DHT22;4249;49.072;9.770;2022-11-06T15:55:04;7.30;1.00
8424;DHT22;4249;49.072;9.770;2022-11-06T15:57:52;7.30;54.90
8424;DHT22;4249;49.072;9.770;2022-11-06T16:00:40;7.30;99.90
8424;DHT22;4249;49.072;9.770;2022-11-06T16:03:29;7.30;1.00
8424;DHT22;4249;49.072;9.770;2022-11-06T16:06:16;7.30;1.00
8424;DHT22;4249;49.072;9.770;2022-11-06T16:09:08;7.30;1.00
8424;DHT22;4249;49.072;9.770;2022-11-06T16:12:00;7.30;1.00
8424;DHT22;4249;49.072;9.770;2022-11-06T16:14:47;7.10;1.00
8424;DHT22;4249;49.072;9.770;2022-11-06T16:17:34;7.10;27.90
8424;DHT22;4249;49.072;9.770;2022-11-06T16:20:22;7.10;99.90
8424;DHT22;4249;49.072;9.770;2022-11-06T16:23:13;7.00;99.90
8424;DHT22;4249;49.072;9.770;2022-11-06T16:26:05;6.90;1.00
8424;DHT22;4249;49.072;9.770;2022-11-06T16:28:54;6.80;1.00
8424;DHT22;4249;49.072;9.770;2022-11-06T16:31:42;6.80;1.00
8424;DHT22;4249;49.072;9.770;2022-11-06T16:34:36;6.70;1.00
8424;DHT22;4249;49.072;9.770;2022-11-06T16:37:41;6.70;44.60
8424;DHT22;4249;49.072;9.770;2022-11-06T16:40:47;6.60;99.90
8424;DHT22;4249;49.072;9.770;2022-11-06T16:43:37;6.60;99.90
8424;DHT22;4249;49.072;9.770;2022-11-06T16:50:43;6.50;99.90
8424;DHT22;4249;49.072;9.770;2022-11-06T16:53:32;6.60;99.90
8424;DHT22;4249;49.072;9.770;2022-11-06T16:56:26;6.70;99.90
8424;DHT22;4249;49.072;9.770;2022-11-06T16:59:21;6.80;99.90
8424;DHT22;4249;49.072;9.770;2022-11-06T17:02:18;7.00;99.90
8424;DHT22;4249;49.072;9.770;2022-11-06T17:05:09;7.00;99.90
8424;DHT22;4249;49.072;9.770;2022-11-06T17:08:06;7.00;99.90
8424;DHT22;4249;49.072;9.770;2022-11-06T17:10:53;7.00;99.90
8424;DHT22;4249;49.072;9.770;2022-11-06T17:13:42;7.10;99.90
8424;DHT22;4249;49.072;9.770;2022-11-06T17:16:44;7.20;36.50
8424;DHT22;4249;49.072;9.770;2022-11-06T17:19:32;7.20;1.00
8424;DHT22;4249;49.072;9.770;2022-11-06T17:22:19;7.30;1.00
8424;DHT22;4249;49.072;9.770;2022-11-06T17:25:07;7.30;1.00
8424;DHT22;4249;49.072;9.770;2022-11-06T17:27:54;7.30;1.00
8424;DHT22;4249;49.072;9.770;2022-11-06T17:30:41;7.30;1.00
8424;DHT22;4249;49.072;9.770;2022-11-06T17:33:30;7.30;1.00
8424;DHT22;4249;49.072;9.770;2022-11-06T17:36:19;7.40;1.00
8424;DHT22;4249;49.072;9.770;2022-11-06T17:39:07;7.40;1.00
8424;DHT22;4249;49.072;9.770;2022-11-06T17:41:54;7.50;1.00
8424;DHT22;4249;49.072;9.770;2022-11-06T17:44:41;7.50;1.00
8424;DHT22;4249;49.072;9.770;2022-11-06T17:47:28;7.50;1.00
8424;DHT22;4249;49.072;9.770;2022-11-06T17:50:17;7.60;1.00
8424;DHT22;4249;49.072;9.770;2022-11-06T17:53:04;7.60;1.00
8424;DHT22;4249;49.072;9.770;2022-11-06T17:55:51;7.70;1.00
8424;DHT22;4249;49.072;9.770;2022-11-06T17:58:38;7.80;1.00
8424;DHT22;4249;49.072;9.770;2022-11-06T18:01:25;7.80;99.90
8424;DHT22;4249;49.072;9.770;2022-11-06T18:04:13;7.70;1.00
8424;DHT22;4249;49.072;9.770;2022-11-06T18:07:01;7.70;1.00
8424;DHT22;4249;49.072;9.770;2022-11-06T18:09:48;7.70;1.00
8424;DHT22;4249;49.072;9.770;2022-11-06T18:12:35;7.70;1.00
8424;DHT22;4249;49.072;9.770;2022-11-06T18:15:23;7.60;1.00
8424;DHT22;4249;49.072;9.770;2022-11-06T18:18:10;7.60;1.00
8424;DHT22;4249;49.072;9.770;2022-11-06T18:20:57;7.60;1.00
8424;DHT22;4249;49.072;9.770;2022-11-06T18:23:45;7.50;52.70
8424;DHT22;4249;49.072;9.770;2022-11-06T18:26:33;7.50;99.90
8424;DHT22;4249;49.072;9.770;2022-11-06T18:29:22;7.50;74.40
8424;DHT22;4249;49.072;9.770;2022-11-06T18:32:09;7.50;99.90
8424;DHT22;4249;49.072;9.770;2022-11-06T18:34:56;7.50;99.90
8424;DHT22;4249;49.072;9.770;2022-11-06T18:37:44;7.50;99.90
8424;DHT22;4249;49.072;9.770;2022-11-06T18:40:32;7.50;99.90
8424;DHT22;4249;49.072;9.770;2022-11-06T18:43:20;7.50;99.90
8424;DHT22;4249;49.072;9.770;2022-11-06T18:46:08;7.50;99.90
8424;DHT22;4249;49.072;9.770;2022-11-06T18:48:56;7.50;99.90
8424;DHT22;4249;49.072;9.770;2022-11-06T18:51:43;7.40;99.90
8424;DHT22;4249;49.072;9.770;2022-11-06T18:54:31;7.40;99.90
8424;DHT22;4249;49.072;9.770;2022-11-06T18:57:20;7.40;99.90
8424;DHT22;4249;49.072;9.770;2022-11-06T19:00:09;7.40;99.90
8424;DHT22;4249;49.072;9.770;2022-11-06T19:02:58;7.40;99.90
8424;DHT22;4249;49.072;9.770;2022-11-06T19:05:46;7.40;99.90
8424;DHT22;4249;49.072;9.770;2022-11-06T19:08:33;7.30;99.90
8424;DHT22;4249;49.072;9.770;2022-11-06T19:11:22;7.40;99.90
8424;DHT22;4249;49.072;9.770;2022-11-06T19:14:11;7.30;99.90
8424;DHT22;4249;49.072;9.770;2022-11-06T19:16:58;7.30;99.90
8424;DHT22;4249;49.072;9.770;2022-11-06T19:19:46;7.30;99.90
8424;DHT22;4249;49.072;9.770;2022-11-06T19:22:33;7.30;99.90
8424;DHT22;4249;49.072;9.770;2022-11-06T19:25:20;7.40;99.90